Decker, MT (59025)

5:01 AM MDT on September 18, 2014 (GMT -0600)
Tongue River Reservoir | Change Station
CLOSE
Current Station
Personal Weather Station
Location: Decker, MT
Elevation: 3486 ft
Nearby Weather Stations

Elev 3486 ft 45.13 °N, 106.78 °W | Updated 12 seconds ago

Clear
Clear
55.7 °F
Feels Like 55.7 °F
N
0.0
Wind Variable Wind from SW
Gusts 2.0 mph

Today
High -- | Low -- °F
--% Chance of Precip.
Yesterday
High -- | Low -- °F
Precip. -- in
6:49 AM 7:11 PM
Waning Crescent, 28% visible
Pressure 29.75 in
Visibility 10.0 miles
Clouds Clear
Dew Point 54 °F
Humidity 93%
Rainfall 0.00 in
Snow Depth 0 in , 0 in , 0 in
UV 0 out of 12
Pollen 5.80 out of 12
Air Quality Not available.
Flu Activity Not available.
METAR KSHR 181053Z AUTO 03005KT 10SM CLR 12/08 A2985 RMK AO2 SLP073 T01220078

More Conditions Fewer Conditions

Pressure 29.75 in
Visibility 10.0 miles
Clouds Clear
Dew Point 54 °F
Humidity 93%
Rainfall 0.00 in
Snow Depth 0 in , 0 in , 0 in
UV 0 out of 12
Pollen 5.80 out of 12
Air Quality Not available.
Flu Activity Not available.
METAR KSHR 181053Z AUTO 03005KT 10SM CLR 12/08 A2985 RMK AO2 SLP073 T01220078

More Conditions Fewer Conditions

10-Day Weather Forecast

Almanac

Astronomy

Sep. 18, 2014 Rise Set
Actual Time 6:49 AM MDT 7:11 PM MDT
Civil Twilight 6:19 AM MDT 7:41 PM MDT
Nautical Twilight 5:44 AM MDT 8:15 PM MDT
Astronomical Twilight 5:08 AM MDT 8:51 PM MDT
Moon 1:32 AM MDT 4:14 PM MDT
Length of Visible Light 13h 21m
Length of Day
12h 22m
Tomorrow will be 3m 7s shorter.
Waning Crescent, 28% of the Moon is Illuminated
Today
Waning Crescent
Sep 24
New
Oct 1
First Quarter
Oct 8
Full
Oct 15
Last Quarter

Today's Extremes

State Highs State Lows

Community

WunderPhotos

Upload Photos

1,754,317 photos uploaded!

Nearby

Snow Depth

Station Depth Elevation
Brackett Creek 0 in 7320 ft
Stringer Creek 0 in 6550 ft
Stahl Peak 0 in 6030 ft
Crystal Lake 0 in 6050 ft
Lubrecht Flume 0 in 4680 ft

Earthquake Activity

City Distance Mag. Time & Date
No recent earthquake activity has been reported nearby.
Minimum magnitude displayed is 2.5.

Coastal Water Temperatures

Place Temperature
No Stations Reporting

Nearby Weather Stations